sensor_id;sensor_type;location;lat;lon;timestamp;temperature;humidity
24091;DHT22;12272;52.426;17.100;2022-10-18T00:01:00;12.00;99.90
24091;DHT22;12272;52.426;17.100;2022-10-18T00:06:03;11.70;99.90
24091;DHT22;12272;52.426;17.100;2022-10-18T00:11:06;11.40;99.90
24091;DHT22;12272;52.426;17.100;2022-10-18T00:16:12;11.30;99.90
24091;DHT22;12272;52.426;17.100;2022-10-18T00:21:18;11.30;99.90
24091;DHT22;12272;52.426;17.100;2022-10-18T00:26:24;11.20;99.90
24091;DHT22;12272;52.426;17.100;2022-10-18T00:31:31;10.90;99.90
24091;DHT22;12272;52.426;17.100;2022-10-18T00:36:34;11.00;99.90
24091;DHT22;12272;52.426;17.100;2022-10-18T00:41:37;11.20;99.90
24091;DHT22;12272;52.426;17.100;2022-10-18T00:46:45;11.30;99.90
24091;DHT22;12272;52.426;17.100;2022-10-18T00:56:53;11.20;99.90
24091;DHT22;12272;52.426;17.100;2022-10-18T01:01:56;11.20;99.90
24091;DHT22;12272;52.426;17.100;2022-10-18T01:12:44;11.30;99.90
24091;DHT22;12272;52.426;17.100;2022-10-18T01:23:04;11.30;99.90
24091;DHT22;12272;52.426;17.100;2022-10-18T01:28:23;11.20;99.90
24091;DHT22;12272;52.426;17.100;2022-10-18T01:33:47;11.40;99.90
24091;DHT22;12272;52.426;17.100;2022-10-18T01:38:54;11.30;99.90
24091;DHT22;12272;52.426;17.100;2022-10-18T01:44:01;11.30;99.90
24091;DHT22;12272;52.426;17.100;2022-10-18T01:49:04;11.20;99.90
24091;DHT22;12272;52.426;17.100;2022-10-18T01:54:08;11.10;99.90
24091;DHT22;12272;52.426;17.100;2022-10-18T02:09:32;11.00;99.90
24091;DHT22;12272;52.426;17.100;2022-10-18T02:14:41;10.80;99.90
24091;DHT22;12272;52.426;17.100;2022-10-18T02:19:48;10.70;99.90
24091;DHT22;12272;52.426;17.100;2022-10-18T02:24:54;10.70;99.90
24091;DHT22;12272;52.426;17.100;2022-10-18T02:29:58;10.50;99.90
24091;DHT22;12272;52.426;17.100;2022-10-18T02:35:09;10.50;99.90
24091;DHT22;12272;52.426;17.100;2022-10-18T02:40:13;10.40;99.90
24091;DHT22;12272;52.426;17.100;2022-10-18T02:45:16;10.40;99.90
24091;DHT22;12272;52.426;17.100;2022-10-18T02:50:18;10.20;99.90
24091;DHT22;12272;52.426;17.100;2022-10-18T02:55:20;10.10;99.90
24091;DHT22;12272;52.426;17.100;2022-10-18T03:00:23;10.10;99.90
24091;DHT22;12272;52.426;17.100;2022-10-18T03:05:25;10.10;99.90
24091;DHT22;12272;52.426;17.100;2022-10-18T03:10:28;9.90;99.90
24091;DHT22;12272;52.426;17.100;2022-10-18T03:15:30;9.80;99.90
24091;DHT22;12272;52.426;17.100;2022-10-18T03:20:33;9.70;99.90
24091;DHT22;12272;52.426;17.100;2022-10-18T03:25:35;9.60;99.90
24091;DHT22;12272;52.426;17.100;2022-10-18T03:30:38;9.50;99.90
24091;DHT22;12272;52.426;17.100;2022-10-18T03:35:40;9.50;99.90
24091;DHT22;12272;52.426;17.100;2022-10-18T03:40:43;9.60;99.90
24091;DHT22;12272;52.426;17.100;2022-10-18T03:45:45;9.70;99.90
24091;DHT22;12272;52.426;17.100;2022-10-18T03:50:48;9.30;99.90
24091;DHT22;12272;52.426;17.100;2022-10-18T03:55:52;9.30;99.90
24091;DHT22;12272;52.426;17.100;2022-10-18T04:00:54;9.30;99.90
24091;DHT22;12272;52.426;17.100;2022-10-18T04:05:57;9.30;99.90
24091;DHT22;12272;52.426;17.100;2022-10-18T04:11:06;9.40;99.90
24091;DHT22;12272;52.426;17.100;2022-10-18T04:16:09;9.50;99.90
24091;DHT22;12272;52.426;17.100;2022-10-18T04:21:12;9.50;99.90
24091;DHT22;12272;52.426;17.100;2022-10-18T04:26:15;9.60;99.90
24091;DHT22;12272;52.426;17.100;2022-10-18T04:31:20;9.60;99.90
24091;DHT22;12272;52.426;17.100;2022-10-18T04:36:22;9.40;99.90
24091;DHT22;12272;52.426;17.100;2022-10-18T04:41:25;9.50;99.90
24091;DHT22;12272;52.426;17.100;2022-10-18T04:46:27;9.60;99.90
24091;DHT22;12272;52.426;17.100;2022-10-18T04:51:30;9.60;99.90
24091;DHT22;12272;52.426;17.100;2022-10-18T04:56:32;9.60;99.90
24091;DHT22;12272;52.426;17.100;2022-10-18T05:01:35;9.80;99.90
24091;DHT22;12272;52.426;17.100;2022-10-18T05:06:37;9.90;99.90
24091;DHT22;12272;52.426;17.100;2022-10-18T05:11:40;10.10;99.90
24091;DHT22;12272;52.426;17.100;2022-10-18T05:16:42;10.00;99.90
24091;DHT22;12272;52.426;17.100;2022-10-18T05:21:45;10.10;99.90
24091;DHT22;12272;52.426;17.100;2022-10-18T05:26:47;10.20;99.90
24091;DHT22;12272;52.426;17.100;2022-10-18T05:31:50;10.30;99.90
24091;DHT22;12272;52.426;17.100;2022-10-18T05:36:52;10.50;99.90
24091;DHT22;12272;52.426;17.100;2022-10-18T05:41:55;11.90;99.90
24091;DHT22;12272;52.426;17.100;2022-10-18T05:46:57;11.20;99.90
24091;DHT22;12272;52.426;17.100;2022-10-18T05:52:00;10.90;99.90
24091;DHT22;12272;52.426;17.100;2022-10-18T05:57:02;11.00;99.90
24091;DHT22;12272;52.426;17.100;2022-10-18T06:02:05;11.00;99.90
24091;DHT22;12272;52.426;17.100;2022-10-18T06:07:09;11.20;99.90
24091;DHT22;12272;52.426;17.100;2022-10-18T06:12:12;11.20;99.90
24091;DHT22;12272;52.426;17.100;2022-10-18T06:17:14;11.30;99.90
24091;DHT22;12272;52.426;17.100;2022-10-18T06:22:17;11.40;99.90
24091;DHT22;12272;52.426;17.100;2022-10-18T06:27:19;11.60;99.90
24091;DHT22;12272;52.426;17.100;2022-10-18T06:32:22;11.80;99.90
24091;DHT22;12272;52.426;17.100;2022-10-18T06:37:24;12.00;99.90
24091;DHT22;12272;52.426;17.100;2022-10-18T06:42:27;12.00;99.90
24091;DHT22;12272;52.426;17.100;2022-10-18T06:47:29;12.10;99.90
24091;DHT22;12272;52.426;17.100;2022-10-18T06:52:32;12.20;99.90
24091;DHT22;12272;52.426;17.100;2022-10-18T06:57:35;12.40;99.90
24091;DHT22;12272;52.426;17.100;2022-10-18T07:02:37;12.50;99.90
24091;DHT22;12272;52.426;17.100;2022-10-18T07:07:42;12.50;99.90
24091;DHT22;12272;52.426;17.100;2022-10-18T07:12:44;12.50;99.90
24091;DHT22;12272;52.426;17.100;2022-10-18T07:17:47;12.60;99.90
24091;DHT22;12272;52.426;17.100;2022-10-18T07:22:54;12.80;99.90
24091;DHT22;12272;52.426;17.100;2022-10-18T07:27:56;12.90;99.90
24091;DHT22;12272;52.426;17.100;2022-10-18T07:32:59;13.00;99.90
24091;DHT22;12272;52.426;17.100;2022-10-18T07:38:01;13.00;99.90
24091;DHT22;12272;52.426;17.100;2022-10-18T07:43:03;13.10;99.90
24091;DHT22;12272;52.426;17.100;2022-10-18T07:48:08;13.30;99.90
24091;DHT22;12272;52.426;17.100;2022-10-18T07:53:11;13.40;99.90
24091;DHT22;12272;52.426;17.100;2022-10-18T07:58:13;13.60;99.90
24091;DHT22;12272;52.426;17.100;2022-10-18T08:03:16;13.60;99.90
24091;DHT22;12272;52.426;17.100;2022-10-18T08:08:19;13.80;99.90
24091;DHT22;12272;52.426;17.100;2022-10-18T08:13:22;13.90;99.90
24091;DHT22;12272;52.426;17.100;2022-10-18T08:18:24;14.10;99.90
24091;DHT22;12272;52.426;17.100;2022-10-18T08:23:27;14.10;99.90
24091;DHT22;12272;52.426;17.100;2022-10-18T08:28:30;14.10;99.90
24091;DHT22;12272;52.426;17.100;2022-10-18T08:33:33;14.10;99.90
24091;DHT22;12272;52.426;17.100;2022-10-18T08:38:38;14.20;99.90
24091;DHT22;12272;52.426;17.100;2022-10-18T08:43:48;14.20;99.90
24091;DHT22;12272;52.426;17.100;2022-10-18T08:48:55;14.30;99.90
24091;DHT22;12272;52.426;17.100;2022-10-18T08:59:23;14.50;99.90
24091;DHT22;12272;52.426;17.100;2022-10-18T09:10:18;14.60;99.90
24091;DHT22;12272;52.426;17.100;2022-10-18T09:20:57;14.90;99.90
24091;DHT22;12272;52.426;17.100;2022-10-18T09:26:11;15.10;99.90
24091;DHT22;12272;52.426;17.100;2022-10-18T09:31:23;15.20;99.90
24091;DHT22;12272;52.426;17.100;2022-10-18T09:36:35;15.30;99.90
24091;DHT22;12272;52.426;17.100;2022-10-18T09:46:46;14.90;99.90
24091;DHT22;12272;52.426;17.100;2022-10-18T09:51:52;15.30;99.90
24091;DHT22;12272;52.426;17.100;2022-10-18T10:02:13;14.80;99.90
24091;DHT22;12272;52.426;17.100;2022-10-18T10:07:21;14.70;99.90
24091;DHT22;12272;52.426;17.100;2022-10-18T10:12:34;14.70;99.90
24091;DHT22;12272;52.426;17.100;2022-10-18T10:17:36;14.60;99.90
24091;DHT22;12272;52.426;17.100;2022-10-18T10:22:40;14.70;99.90
24091;DHT22;12272;52.426;17.100;2022-10-18T10:27:44;14.80;99.90
24091;DHT22;12272;52.426;17.100;2022-10-18T10:32:48;14.70;99.90
24091;DHT22;12272;52.426;17.100;2022-10-18T10:37:52;14.60;99.90
24091;DHT22;12272;52.426;17.100;2022-10-18T10:43:27;14.60;99.90
24091;DHT22;12272;52.426;17.100;2022-10-18T10:48:56;14.60;99.90
24091;DHT22;12272;52.426;17.100;2022-10-18T10:54:24;14.90;99.90
24091;DHT22;12272;52.426;17.100;2022-10-18T10:59:30;14.70;99.90
24091;DHT22;12272;52.426;17.100;2022-10-18T11:04:33;14.60;99.90
24091;DHT22;12272;52.426;17.100;2022-10-18T11:20:30;14.60;99.90
24091;DHT22;12272;52.426;17.100;2022-10-18T11:25:48;14.60;99.90
24091;DHT22;12272;52.426;17.100;2022-10-18T11:31:28;14.60;99.90
24091;DHT22;12272;52.426;17.100;2022-10-18T11:36:37;14.60;99.90
24091;DHT22;12272;52.426;17.100;2022-10-18T11:42:34;14.60;99.90
24091;DHT22;12272;52.426;17.100;2022-10-18T11:48:24;14.50;99.90
24091;DHT22;12272;52.426;17.100;2022-10-18T11:58:40;14.30;99.90
24091;DHT22;12272;52.426;17.100;2022-10-18T12:04:11;14.30;99.90
24091;DHT22;12272;52.426;17.100;2022-10-18T12:09:29;14.10;99.90
24091;DHT22;12272;52.426;17.100;2022-10-18T12:14:36;14.00;99.90
24091;DHT22;12272;52.426;17.100;2022-10-18T12:19:41;13.80;99.90
24091;DHT22;12272;52.426;17.100;2022-10-18T12:24:44;13.70;99.90
24091;DHT22;12272;52.426;17.100;2022-10-18T12:29:52;13.60;99.90
24091;DHT22;12272;52.426;17.100;2022-10-18T12:35:01;13.60;99.90
24091;DHT22;12272;52.426;17.100;2022-10-18T12:40:22;13.60;99.90
24091;DHT22;12272;52.426;17.100;2022-10-18T12:45:32;13.60;99.90
24091;DHT22;12272;52.426;17.100;2022-10-18T12:50:41;13.60;99.90
24091;DHT22;12272;52.426;17.100;2022-10-18T12:55:47;13.60;99.90
24091;DHT22;12272;52.426;17.100;2022-10-18T13:00:52;13.60;99.90
24091;DHT22;12272;52.426;17.100;2022-10-18T13:05:58;13.60;99.90
24091;DHT22;12272;52.426;17.100;2022-10-18T13:32:32;13.70;99.90
24091;DHT22;12272;52.426;17.100;2022-10-18T13:37:36;13.70;99.90
24091;DHT22;12272;52.426;17.100;2022-10-18T13:42:39;13.80;99.90
24091;DHT22;12272;52.426;17.100;2022-10-18T13:47:41;13.70;99.90
24091;DHT22;12272;52.426;17.100;2022-10-18T14:09:05;13.60;99.90
24091;DHT22;12272;52.426;17.100;2022-10-18T14:20:02;13.60;99.90
24091;DHT22;12272;52.426;17.100;2022-10-18T14:25:27;13.60;99.90
24091;DHT22;12272;52.426;17.100;2022-10-18T14:30:31;13.50;99.90
24091;DHT22;12272;52.426;17.100;2022-10-18T14:35:33;13.50;99.90
24091;DHT22;12272;52.426;17.100;2022-10-18T14:40:38;13.40;99.90
24091;DHT22;12272;52.426;17.100;2022-10-18T14:45:41;13.40;99.90
24091;DHT22;12272;52.426;17.100;2022-10-18T14:50:47;13.30;99.90
24091;DHT22;12272;52.426;17.100;2022-10-18T14:56:01;13.30;99.90
24091;DHT22;12272;52.426;17.100;2022-10-18T15:01:06;13.30;99.90
24091;DHT22;12272;52.426;17.100;2022-10-18T15:06:18;13.40;99.90
24091;DHT22;12272;52.426;17.100;2022-10-18T15:11:21;13.40;99.90
24091;DHT22;12272;52.426;17.100;2022-10-18T15:16:27;13.50;99.90
24091;DHT22;12272;52.426;17.100;2022-10-18T15:21:31;13.60;99.90
24091;DHT22;12272;52.426;17.100;2022-10-18T15:26:34;14.10;99.90
24091;DHT22;12272;52.426;17.100;2022-10-18T15:31:38;13.70;99.90
24091;DHT22;12272;52.426;17.100;2022-10-18T15:36:44;14.00;99.90
24091;DHT22;12272;52.426;17.100;2022-10-18T15:41:59;13.70;99.90
24091;DHT22;12272;52.426;17.100;2022-10-18T15:52:30;13.80;99.90
24091;DHT22;12272;52.426;17.100;2022-10-18T15:57:39;13.90;99.90
24091;DHT22;12272;52.426;17.100;2022-10-18T16:02:41;13.70;99.90
24091;DHT22;12272;52.426;17.100;2022-10-18T16:07:44;13.70;99.90
24091;DHT22;12272;52.426;17.100;2022-10-18T16:12:46;14.00;99.90
24091;DHT22;12272;52.426;17.100;2022-10-18T16:17:49;13.70;99.90
24091;DHT22;12272;52.426;17.100;2022-10-18T16:22:52;15.20;99.90
24091;DHT22;12272;52.426;17.100;2022-10-18T16:27:54;13.90;99.90
24091;DHT22;12272;52.426;17.100;2022-10-18T16:32:56;13.80;99.90
24091;DHT22;12272;52.426;17.100;2022-10-18T16:37:59;13.80;99.90
24091;DHT22;12272;52.426;17.100;2022-10-18T16:43:01;13.70;99.90
24091;DHT22;12272;52.426;17.100;2022-10-18T16:48:04;13.60;99.90
24091;DHT22;12272;52.426;17.100;2022-10-18T16:53:06;13.60;99.90
24091;DHT22;12272;52.426;17.100;2022-10-18T16:58:19;13.80;99.90
24091;DHT22;12272;52.426;17.100;2022-10-18T17:03:22;13.90;99.90
24091;DHT22;12272;52.426;17.100;2022-10-18T17:08:26;14.00;99.90
24091;DHT22;12272;52.426;17.100;2022-10-18T17:13:29;15.40;99.90
24091;DHT22;12272;52.426;17.100;2022-10-18T17:18:31;16.60;99.90
24091;DHT22;12272;52.426;17.100;2022-10-18T17:23:34;15.90;99.90
24091;DHT22;12272;52.426;17.100;2022-10-18T17:28:36;16.00;99.90
24091;DHT22;12272;52.426;17.100;2022-10-18T17:33:39;14.90;99.90
24091;DHT22;12272;52.426;17.100;2022-10-18T17:38:42;14.80;99.90
24091;DHT22;12272;52.426;17.100;2022-10-18T17:43:45;13.90;99.90
24091;DHT22;12272;52.426;17.100;2022-10-18T17:48:49;13.70;99.90
24091;DHT22;12272;52.426;17.100;2022-10-18T17:53:52;15.60;99.90
24091;DHT22;12272;52.426;17.100;2022-10-18T17:58:55;14.40;99.90
24091;DHT22;12272;52.426;17.100;2022-10-18T18:03:59;13.60;99.90
24091;DHT22;12272;52.426;17.100;2022-10-18T18:09:06;13.10;99.90
24091;DHT22;12272;52.426;17.100;2022-10-18T18:14:10;13.40;99.90
24091;DHT22;12272;52.426;17.100;2022-10-18T18:19:14;13.70;99.90
24091;DHT22;12272;52.426;17.100;2022-10-18T18:24:16;13.80;99.90
24091;DHT22;12272;52.426;17.100;2022-10-18T18:29:26;13.70;99.90
24091;DHT22;12272;52.426;17.100;2022-10-18T18:34:29;13.60;99.90
24091;DHT22;12272;52.426;17.100;2022-10-18T18:39:31;13.70;99.90
24091;DHT22;12272;52.426;17.100;2022-10-18T18:44:36;13.10;99.90
24091;DHT22;12272;52.426;17.100;2022-10-18T18:49:39;12.70;99.90
24091;DHT22;12272;52.426;17.100;2022-10-18T18:54:42;12.60;99.90
24091;DHT22;12272;52.426;17.100;2022-10-18T18:59:44;12.50;99.90
24091;DHT22;12272;52.426;17.100;2022-10-18T19:04:47;12.30;99.90
24091;DHT22;12272;52.426;17.100;2022-10-18T19:09:49;12.20;99.90
24091;DHT22;12272;52.426;17.100;2022-10-18T19:14:52;12.10;99.90
24091;DHT22;12272;52.426;17.100;2022-10-18T19:19:54;12.10;99.90
24091;DHT22;12272;52.426;17.100;2022-10-18T19:24:56;11.90;99.90
24091;DHT22;12272;52.426;17.100;2022-10-18T19:29:59;11.90;99.90
24091;DHT22;12272;52.426;17.100;2022-10-18T19:35:01;11.80;99.90
24091;DHT22;12272;52.426;17.100;2022-10-18T19:40:04;13.30;99.90
24091;DHT22;12272;52.426;17.100;2022-10-18T19:45:07;12.30;99.90
24091;DHT22;12272;52.426;17.100;2022-10-18T19:50:10;11.70;99.90
24091;DHT22;12272;52.426;17.100;2022-10-18T19:55:12;11.60;99.90
24091;DHT22;12272;52.426;17.100;2022-10-18T20:00:15;11.60;99.90
24091;DHT22;12272;52.426;17.100;2022-10-18T20:05:20;11.40;99.90
24091;DHT22;12272;52.426;17.100;2022-10-18T20:10:23;11.40;99.90
24091;DHT22;12272;52.426;17.100;2022-10-18T20:15:26;11.40;99.90
24091;DHT22;12272;52.426;17.100;2022-10-18T20:20:29;11.30;99.90
24091;DHT22;12272;52.426;17.100;2022-10-18T20:25:31;11.40;99.90
24091;DHT22;12272;52.426;17.100;2022-10-18T20:30:34;11.20;99.90
24091;DHT22;12272;52.426;17.100;2022-10-18T20:35:36;11.10;99.90
24091;DHT22;12272;52.426;17.100;2022-10-18T20:40:39;11.00;99.90
24091;DHT22;12272;52.426;17.100;2022-10-18T20:45:41;11.10;99.90
24091;DHT22;12272;52.426;17.100;2022-10-18T20:50:43;11.00;99.90
24091;DHT22;12272;52.426;17.100;2022-10-18T20:55:48;10.90;99.90
24091;DHT22;12272;52.426;17.100;2022-10-18T21:00:51;10.90;99.90
24091;DHT22;12272;52.426;17.100;2022-10-18T21:05:54;10.80;99.90
24091;DHT22;12272;52.426;17.100;2022-10-18T22:52:31;10.10;99.90
24091;DHT22;12272;52.426;17.100;2022-10-18T22:57:34;10.30;99.90
24091;DHT22;12272;52.426;17.100;2022-10-18T23:02:37;10.00;99.90
24091;DHT22;12272;52.426;17.100;2022-10-18T23:07:39;10.20;99.90
24091;DHT22;12272;52.426;17.100;2022-10-18T23:12:42;10.20;99.90
24091;DHT22;12272;52.426;17.100;2022-10-18T23:17:44;10.30;99.90
24091;DHT22;12272;52.426;17.100;2022-10-18T23:22:46;10.90;99.90
24091;DHT22;12272;52.426;17.100;2022-10-18T23:27:49;10.50;99.90
24091;DHT22;12272;52.426;17.100;2022-10-18T23:32:51;10.50;99.90
24091;DHT22;12272;52.426;17.100;2022-10-18T23:37:54;10.70;99.90
24091;DHT22;12272;52.426;17.100;2022-10-18T23:42:56;12.20;99.90
24091;DHT22;12272;52.426;17.100;2022-10-18T23:53:02;11.90;99.90
24091;DHT22;12272;52.426;17.100;2022-10-18T23:58:05;12.10;99.90
